sensor_id;sensor_type;location;lat;lon;timestamp;P1;durP1;ratioP1;P2;durP2;ratioP2
16033;SDS011;8121;51.418;6.998;2022-12-07T00:06:29;6.63;;;3.93;;
16033;SDS011;8121;51.418;6.998;2022-12-07T00:16:33;8.33;;;4.23;;
16033;SDS011;8121;51.418;6.998;2022-12-07T00:26:36;6.23;;;5.07;;
16033;SDS011;8121;51.418;6.998;2022-12-07T00:36:40;5.33;;;4.80;;
16033;SDS011;8121;51.418;6.998;2022-12-07T00:46:41;13.17;;;8.93;;
16033;SDS011;8121;51.418;6.998;2022-12-07T00:56:44;7.90;;;6.47;;
16033;SDS011;8121;51.418;6.998;2022-12-07T01:06:46;7.63;;;6.07;;
16033;SDS011;8121;51.418;6.998;2022-12-07T01:16:49;14.43;;;8.60;;
16033;SDS011;8121;51.418;6.998;2022-12-07T01:26:50;9.13;;;8.13;;
16033;SDS011;8121;51.418;6.998;2022-12-07T01:36:53;8.97;;;6.70;;
16033;SDS011;8121;51.418;6.998;2022-12-07T01:46:55;8.50;;;6.70;;
16033;SDS011;8121;51.418;6.998;2022-12-07T01:56:58;10.20;;;6.90;;
16033;SDS011;8121;51.418;6.998;2022-12-07T02:07:00;8.63;;;6.80;;
16033;SDS011;8121;51.418;6.998;2022-12-07T02:17:06;9.20;;;7.07;;
16033;SDS011;8121;51.418;6.998;2022-12-07T02:27:15;12.00;;;7.90;;
16033;SDS011;8121;51.418;6.998;2022-12-07T02:37:33;10.07;;;8.20;;
16033;SDS011;8121;51.418;6.998;2022-12-07T02:47:37;16.70;;;10.10;;
16033;SDS011;8121;51.418;6.998;2022-12-07T02:57:45;11.80;;;8.20;;
16033;SDS011;8121;51.418;6.998;2022-12-07T03:07:55;16.23;;;10.67;;
16033;SDS011;8121;51.418;6.998;2022-12-07T03:18:02;14.37;;;9.53;;
16033;SDS011;8121;51.418;6.998;2022-12-07T03:28:05;16.23;;;11.30;;
16033;SDS011;8121;51.418;6.998;2022-12-07T03:38:11;12.23;;;8.37;;
16033;SDS011;8121;51.418;6.998;2022-12-07T03:48:16;12.10;;;8.03;;
16033;SDS011;8121;51.418;6.998;2022-12-07T03:58:25;13.23;;;9.23;;
16033;SDS011;8121;51.418;6.998;2022-12-07T04:08:27;18.47;;;7.70;;
16033;SDS011;8121;51.418;6.998;2022-12-07T04:18:30;13.73;;;8.93;;
16033;SDS011;8121;51.418;6.998;2022-12-07T04:28:31;11.70;;;7.63;;
16033;SDS011;8121;51.418;6.998;2022-12-07T04:38:34;17.53;;;10.60;;
16033;SDS011;8121;51.418;6.998;2022-12-07T04:48:36;21.53;;;10.30;;
16033;SDS011;8121;51.418;6.998;2022-12-07T04:58:38;28.37;;;13.03;;
16033;SDS011;8121;51.418;6.998;2022-12-07T05:08:40;14.80;;;9.07;;
16033;SDS011;8121;51.418;6.998;2022-12-07T05:18:44;14.37;;;8.17;;
16033;SDS011;8121;51.418;6.998;2022-12-07T05:28:49;17.87;;;9.87;;
16033;SDS011;8121;51.418;6.998;2022-12-07T05:38:53;9.80;;;6.43;;
16033;SDS011;8121;51.418;6.998;2022-12-07T05:48:54;6.87;;;4.97;;
16033;SDS011;8121;51.418;6.998;2022-12-07T05:58:57;5.83;;;4.80;;
16033;SDS011;8121;51.418;6.998;2022-12-07T06:09:16;7.63;;;5.67;;
16033;SDS011;8121;51.418;6.998;2022-12-07T06:19:19;4.83;;;4.43;;
16033;SDS011;8121;51.418;6.998;2022-12-07T06:29:21;3.80;;;3.40;;
16033;SDS011;8121;51.418;6.998;2022-12-07T06:39:24;4.20;;;3.80;;
16033;SDS011;8121;51.418;6.998;2022-12-07T06:49:27;6.90;;;4.33;;
16033;SDS011;8121;51.418;6.998;2022-12-07T06:59:30;5.53;;;4.40;;
16033;SDS011;8121;51.418;6.998;2022-12-07T07:09:31;10.40;;;5.60;;
16033;SDS011;8121;51.418;6.998;2022-12-07T07:19:34;8.33;;;4.30;;
16033;SDS011;8121;51.418;6.998;2022-12-07T07:29:37;4.20;;;3.30;;
16033;SDS011;8121;51.418;6.998;2022-12-07T07:39:40;9.17;;;4.77;;
16033;SDS011;8121;51.418;6.998;2022-12-07T07:49:41;9.57;;;5.47;;
16033;SDS011;8121;51.418;6.998;2022-12-07T07:59:44;5.73;;;4.13;;
16033;SDS011;8121;51.418;6.998;2022-12-07T08:09:46;5.27;;;4.33;;
16033;SDS011;8121;51.418;6.998;2022-12-07T08:19:49;4.37;;;3.97;;
16033;SDS011;8121;51.418;6.998;2022-12-07T08:29:50;5.30;;;3.37;;
16033;SDS011;8121;51.418;6.998;2022-12-07T08:39:53;7.07;;;3.87;;
16033;SDS011;8121;51.418;6.998;2022-12-07T08:49:55;5.37;;;3.60;;
16033;SDS011;8121;51.418;6.998;2022-12-07T08:59:58;2.70;;;2.50;;
16033;SDS011;8121;51.418;6.998;2022-12-07T09:10:00;3.53;;;2.90;;
16033;SDS011;8121;51.418;6.998;2022-12-07T09:20:03;3.37;;;2.70;;
16033;SDS011;8121;51.418;6.998;2022-12-07T09:30:06;3.50;;;3.20;;
16033;SDS011;8121;51.418;6.998;2022-12-07T09:40:10;5.27;;;3.73;;
16033;SDS011;8121;51.418;6.998;2022-12-07T09:50:13;2.90;;;2.50;;
16033;SDS011;8121;51.418;6.998;2022-12-07T10:00:18;3.03;;;2.70;;
16033;SDS011;8121;51.418;6.998;2022-12-07T10:10:23;3.83;;;2.60;;
16033;SDS011;8121;51.418;6.998;2022-12-07T10:20:27;8.30;;;2.10;;
16033;SDS011;8121;51.418;6.998;2022-12-07T10:30:29;3.23;;;2.17;;
16033;SDS011;8121;51.418;6.998;2022-12-07T10:40:34;4.13;;;2.37;;
16033;SDS011;8121;51.418;6.998;2022-12-07T10:50:41;1.83;;;1.73;;
16033;SDS011;8121;51.418;6.998;2022-12-07T11:00:53;2.27;;;1.80;;
16033;SDS011;8121;51.418;6.998;2022-12-07T11:10:58;1.93;;;1.43;;
16033;SDS011;8121;51.418;6.998;2022-12-07T11:21:07;2.93;;;1.70;;
16033;SDS011;8121;51.418;6.998;2022-12-07T11:31:13;7.43;;;1.93;;
16033;SDS011;8121;51.418;6.998;2022-12-07T11:41:22;6.50;;;1.97;;
16033;SDS011;8121;51.418;6.998;2022-12-07T11:51:26;3.33;;;1.80;;
16033;SDS011;8121;51.418;6.998;2022-12-07T12:01:35;2.57;;;1.70;;
16033;SDS011;8121;51.418;6.998;2022-12-07T12:11:49;9.10;;;2.27;;
16033;SDS011;8121;51.418;6.998;2022-12-07T12:22:00;7.40;;;2.60;;
16033;SDS011;8121;51.418;6.998;2022-12-07T12:32:16;2.70;;;1.43;;
16033;SDS011;8121;51.418;6.998;2022-12-07T12:42:21;1.90;;;1.30;;
16033;SDS011;8121;51.418;6.998;2022-12-07T13:03:03;12.03;;;2.20;;
16033;SDS011;8121;51.418;6.998;2022-12-07T13:13:08;13.33;;;2.20;;
16033;SDS011;8121;51.418;6.998;2022-12-07T13:23:33;2.70;;;0.90;;
16033;SDS011;8121;51.418;6.998;2022-12-07T13:33:37;2.00;;;1.80;;
16033;SDS011;8121;51.418;6.998;2022-12-07T13:43:44;1.33;;;1.20;;
16033;SDS011;8121;51.418;6.998;2022-12-07T13:53:47;7.50;;;2.70;;
16033;SDS011;8121;51.418;6.998;2022-12-07T14:03:51;2.90;;;1.77;;
16033;SDS011;8121;51.418;6.998;2022-12-07T14:13:56;4.20;;;1.80;;
16033;SDS011;8121;51.418;6.998;2022-12-07T14:24:14;2.70;;;1.90;;
16033;SDS011;8121;51.418;6.998;2022-12-07T14:34:19;3.63;;;1.63;;
16033;SDS011;8121;51.418;6.998;2022-12-07T14:44:22;3.03;;;1.50;;
16033;SDS011;8121;51.418;6.998;2022-12-07T14:54:24;5.23;;;1.73;;
16033;SDS011;8121;51.418;6.998;2022-12-07T15:04:31;2.17;;;1.30;;
16033;SDS011;8121;51.418;6.998;2022-12-07T15:14:34;3.90;;;1.77;;
16033;SDS011;8121;51.418;6.998;2022-12-07T15:24:37;3.40;;;1.27;;
16033;SDS011;8121;51.418;6.998;2022-12-07T15:34:39;0.93;;;0.83;;
16033;SDS011;8121;51.418;6.998;2022-12-07T15:44:41;7.67;;;1.63;;
16033;SDS011;8121;51.418;6.998;2022-12-07T15:55:01;5.63;;;3.33;;
16033;SDS011;8121;51.418;6.998;2022-12-07T16:05:04;4.07;;;1.60;;
16033;SDS011;8121;51.418;6.998;2022-12-07T16:15:06;1.80;;;1.70;;
16033;SDS011;8121;51.418;6.998;2022-12-07T16:25:10;5.73;;;2.37;;
16033;SDS011;8121;51.418;6.998;2022-12-07T16:35:12;4.47;;;2.27;;
16033;SDS011;8121;51.418;6.998;2022-12-07T16:45:15;4.00;;;1.50;;
16033;SDS011;8121;51.418;6.998;2022-12-07T16:55:16;1.43;;;1.33;;
16033;SDS011;8121;51.418;6.998;2022-12-07T17:05:21;3.97;;;2.53;;
16033;SDS011;8121;51.418;6.998;2022-12-07T17:15:24;4.00;;;1.77;;
16033;SDS011;8121;51.418;6.998;2022-12-07T17:25:28;5.33;;;1.67;;
16033;SDS011;8121;51.418;6.998;2022-12-07T17:35:30;2.40;;;1.60;;
16033;SDS011;8121;51.418;6.998;2022-12-07T17:45:34;4.70;;;2.17;;
16033;SDS011;8121;51.418;6.998;2022-12-07T17:55:37;2.40;;;1.80;;
16033;SDS011;8121;51.418;6.998;2022-12-07T18:05:41;5.47;;;2.33;;
16033;SDS011;8121;51.418;6.998;2022-12-07T18:15:44;3.53;;;1.93;;
16033;SDS011;8121;51.418;6.998;2022-12-07T18:25:48;1.60;;;1.50;;
16033;SDS011;8121;51.418;6.998;2022-12-07T18:35:50;5.33;;;3.00;;
16033;SDS011;8121;51.418;6.998;2022-12-07T18:45:53;2.53;;;2.00;;
16033;SDS011;8121;51.418;6.998;2022-12-07T18:55:59;6.70;;;4.20;;
16033;SDS011;8121;51.418;6.998;2022-12-07T19:06:05;3.83;;;3.53;;
16033;SDS011;8121;51.418;6.998;2022-12-07T19:16:07;3.13;;;2.93;;
16033;SDS011;8121;51.418;6.998;2022-12-07T19:26:11;3.33;;;3.10;;
16033;SDS011;8121;51.418;6.998;2022-12-07T19:36:13;4.50;;;3.77;;
16033;SDS011;8121;51.418;6.998;2022-12-07T19:46:16;13.50;;;4.97;;
16033;SDS011;8121;51.418;6.998;2022-12-07T19:56:18;3.53;;;3.23;;
16033;SDS011;8121;51.418;6.998;2022-12-07T20:06:22;13.97;;;4.73;;
16033;SDS011;8121;51.418;6.998;2022-12-07T20:16:24;9.30;;;4.77;;
16033;SDS011;8121;51.418;6.998;2022-12-07T20:26:27;5.30;;;4.70;;
16033;SDS011;8121;51.418;6.998;2022-12-07T20:36:29;4.00;;;3.70;;
16033;SDS011;8121;51.418;6.998;2022-12-07T20:46:32;5.93;;;5.17;;
16033;SDS011;8121;51.418;6.998;2022-12-07T20:56:34;5.47;;;4.90;;
16033;SDS011;8121;51.418;6.998;2022-12-07T21:06:37;6.40;;;5.70;;
16033;SDS011;8121;51.418;6.998;2022-12-07T21:16:39;12.60;;;7.47;;
16033;SDS011;8121;51.418;6.998;2022-12-07T21:26:42;10.73;;;6.73;;
16033;SDS011;8121;51.418;6.998;2022-12-07T21:36:44;13.60;;;8.90;;
16033;SDS011;8121;51.418;6.998;2022-12-07T21:46:47;9.20;;;6.90;;
16033;SDS011;8121;51.418;6.998;2022-12-07T21:56:48;14.57;;;7.50;;
16033;SDS011;8121;51.418;6.998;2022-12-07T22:06:51;11.27;;;5.97;;
16033;SDS011;8121;51.418;6.998;2022-12-07T22:16:53;10.00;;;7.00;;
16033;SDS011;8121;51.418;6.998;2022-12-07T22:26:56;4.03;;;3.63;;
16033;SDS011;8121;51.418;6.998;2022-12-07T22:36:57;9.63;;;5.30;;
16033;SDS011;8121;51.418;6.998;2022-12-07T22:47:00;5.77;;;4.10;;
16033;SDS011;8121;51.418;6.998;2022-12-07T22:57:02;6.00;;;4.63;;
16033;SDS011;8121;51.418;6.998;2022-12-07T23:07:05;6.67;;;5.07;;
16033;SDS011;8121;51.418;6.998;2022-12-07T23:17:06;6.30;;;5.67;;
16033;SDS011;8121;51.418;6.998;2022-12-07T23:27:09;6.43;;;4.83;;
16033;SDS011;8121;51.418;6.998;2022-12-07T23:37:11;16.93;;;10.40;;
16033;SDS011;8121;51.418;6.998;2022-12-07T23:47:14;16.33;;;9.90;;
16033;SDS011;8121;51.418;6.998;2022-12-07T23:57:21;9.80;;;6.30;;
